Time;durP1;ratioP1;P1;durP2;ratioP2;P2;SDS_P1;SDS_P2;PMS_P1;PMS_P2;Temp;Humidity;BMP_temperature;BMP_pressure;BME280_temperature;BME280_humidity;BME280_pressure;Samples;Min_cycle;Max_cycle;Signal;HPM_P1;HPM_P2
2022/12/05 00:01:22;;;;;;;19.88;8.40;;;4.10;99.90;;;;;;5070728;28;20101;-81
2022/12/05 00:03:50;;;;;;;21.15;8.88;;;4.30;99.90;;;;;;5016890;28;20041;-81
2022/12/05 00:06:17;;;;;;;16.73;8.07;;;5.50;99.90;;;;;;5021012;28;20039;-81
2022/12/05 00:08:43;;;;;;;19.48;9.15;;;4.80;99.90;;;;;;5045884;28;20044;-80
2022/12/05 00:11:14;;;;;;;19.67;8.07;;;5.70;99.90;;;;;;5039546;28;20083;-80
2022/12/05 00:13:42;;;;;;;15.55;7.55;;;6.30;99.90;;;;;;5056593;28;20078;-80
2022/12/05 00:16:15;;;;;;;19.60;7.60;;;4.60;99.90;;;;;;5056058;28;20078;-80
2022/12/05 00:18:41;;;;;;;19.52;8.38;;;6.00;99.90;;;;;;5058854;28;20060;-80
2022/12/05 00:21:11;;;;;;;15.80;7.97;;;5.60;99.90;;;;;;5059425;28;20110;-80
2022/12/05 00:23:36;;;;;;;17.85;7.40;;;5.00;99.90;;;;;;5059742;28;20127;-80
2022/12/05 00:26:03;;;;;;;18.02;7.13;;;5.00;99.90;;;;;;5059007;28;20123;-80
2022/12/05 00:28:33;;;;;;;15.18;6.90;;;5.70;99.90;;;;;;5075437;28;20044;-81
2022/12/05 00:31:08;;;;;;;17.98;7.85;;;4.30;99.90;;;;;;5059322;28;20039;-81
2022/12/05 00:33:34;;;;;;;19.05;7.75;;;4.30;99.90;;;;;;5059070;28;20043;-81
2022/12/05 00:36:07;;;;;;;19.48;7.60;;;4.30;99.90;;;;;;5059110;28;20092;-81
2022/12/05 00:38:32;;;;;;;19.67;8.05;;;4.30;99.90;;;;;;5053724;28;20512;-81
2022/12/05 00:41:07;;;;;;;15.18;7.90;;;4.40;99.90;;;;;;5039184;28;20119;-81
2022/12/05 00:43:34;;;;;;;15.63;7.50;;;4.30;99.90;;;;;;5055378;28;20075;-81
2022/12/05 00:46:05;;;;;;;16.80;7.97;;;4.30;99.90;;;;;;5055321;28;20093;-81
2022/12/05 00:48:31;;;;;;;18.33;7.95;;;3.20;99.90;;;;;;5072535;28;20492;-81
2022/12/05 00:51:02;;;;;;;13.75;6.45;;;5.90;99.90;;;;;;5038571;28;20399;-81
2022/12/05 00:53:29;;;;;;;16.58;8.10;;;4.30;99.90;;;;;;5088820;28;20036;-81
2022/12/05 00:55:54;;;;;;;17.52;7.80;;;4.30;99.90;;;;;;5055462;28;20052;-81
2022/12/05 00:58:20;;;;;;;18.38;7.65;;;4.20;99.90;;;;;;5073456;28;20044;-81
2022/12/05 01:00:46;;;;;;;20.27;8.93;;;4.40;99.90;;;;;;5058533;28;20055;-80
2022/12/05 01:03:11;;;;;;;20.15;8.32;;;4.80;99.90;;;;;;5058679;28;20051;-81
2022/12/05 01:05:37;;;;;;;19.38;7.95;;;4.40;99.90;;;;;;5057429;28;20042;-82
2022/12/05 01:08:03;;;;;;;20.67;8.88;;;5.10;99.90;;;;;;5034627;28;20040;-82
2022/12/05 01:10:28;;;;;;;22.27;8.98;;;4.60;99.90;;;;;;5058513;28;20036;-85
2022/12/05 01:12:54;;;;;;;22.92;9.13;;;4.60;99.90;;;;;;5058307;28;20083;-84
2022/12/05 01:15:20;;;;;;;17.00;7.72;;;4.90;99.90;;;;;;5029238;28;20036;-84
2022/12/05 01:17:46;;;;;;;22.10;8.25;;;;;;;;;;5077738;28;20040;-84
2022/12/05 01:20:12;;;;;;;17.27;9.02;;;4.60;99.90;;;;;;5078815;28;20048;-81
2022/12/05 01:22:38;;;;;;;22.05;8.60;;;4.70;99.90;;;;;;5059484;28;20043;-81
2022/12/05 01:25:04;;;;;;;17.75;7.60;;;4.80;99.90;;;;;;5042096;28;20500;-81
2022/12/05 01:27:30;;;;;;;18.25;7.95;;;6.40;99.90;;;;;;5049979;28;20044;-81
2022/12/05 01:29:57;;;;;;;21.17;10.05;;;4.60;99.90;;;;;;5079403;28;20040;-81
2022/12/05 01:32:22;;;;;;;21.55;8.63;;;4.70;99.90;;;;;;5078998;28;20058;-81
2022/12/05 01:34:48;;;;;;;18.55;8.20;;;4.70;99.90;;;;;;5095686;28;20043;-81
2022/12/05 01:37:14;;;;;;;20.25;8.63;;;4.70;99.90;;;;;;5062377;28;20089;-85
2022/12/05 01:39:40;;;;;;;16.30;8.80;;;4.60;99.90;;;;;;5074425;28;20032;-84
2022/12/05 01:42:06;;;;;;;18.55;8.07;;;4.60;99.90;;;;;;5025565;28;20867;-84
2022/12/05 01:44:32;;;;;;;25.13;10.18;;;4.70;99.90;;;;;;5042210;28;20074;-85
2022/12/05 01:46:57;;;;;;;18.80;8.80;;;4.70;99.90;;;;;;5042116;28;20056;-85
2022/12/05 01:49:34;;;;;;;18.40;8.13;;;4.70;99.90;;;;;;5041926;28;20059;-85
2022/12/05 01:52:06;;;;;;;15.25;7.60;;;4.70;99.90;;;;;;5062127;28;20085;-84
2022/12/05 01:54:35;;;;;;;14.75;6.50;;;4.70;99.90;;;;;;5078704;28;20036;-81
2022/12/05 01:57:04;;;;;;;17.30;6.65;;;4.70;99.90;;;;;;5078549;28;20133;-81
2022/12/05 01:59:35;;;;;;;18.00;8.77;;;4.70;99.90;;;;;;5059170;28;20123;-81
2022/12/05 02:02:02;;;;;;;17.08;7.93;;;4.70;99.90;;;;;;5075138;28;20094;-81
2022/12/05 02:04:28;;;;;;;15.52;7.30;;;4.70;99.90;;;;;;5075002;28;20040;-81
2022/12/05 02:06:54;;;;;;;15.25;6.95;;;4.70;99.90;;;;;;5065278;28;20495;-81
2022/12/05 02:09:21;;;;;;;13.93;6.88;;;4.50;99.90;;;;;;5047593;28;20503;-81
2022/12/05 02:11:57;;;;;;;19.13;7.70;;;4.70;99.90;;;;;;5061694;28;20039;-81
2022/12/05 02:14:43;;;;;;;14.55;7.00;;;5.40;99.90;;;;;;5061464;28;20495;-81
2022/12/05 02:17:27;;;;;;;16.08;6.85;;;4.80;99.90;;;;;;5061483;28;20040;-80
2022/12/05 02:20:02;;;;;;;15.38;6.75;;;4.70;99.90;;;;;;5092154;28;20088;-81
2022/12/05 02:23:05;;;;;;;15.05;6.63;;;4.70;99.90;;;;;;5058666;28;20055;-81
2022/12/05 02:25:43;;;;;;;12.85;6.53;;;4.80;99.90;;;;;;5037803;28;20385;-81
2022/12/05 02:28:37;;;;;;;14.18;7.10;;;5.00;99.90;;;;;;5054295;28;20051;-81
2022/12/05 02:31:22;;;;;;;14.00;6.63;;;4.40;99.90;;;;;;5001673;28;20042;-81
2022/12/05 02:34:23;;;;;;;12.23;5.55;;;3.10;99.90;;;;;;5057928;28;20036;-81
2022/12/05 02:37:15;;;;;;;9.15;5.78;;;5.60;99.90;;;;;;5057793;28;20076;-81
2022/12/05 02:39:51;;;;;;;13.38;6.53;;;5.00;99.90;;;;;;5047215;28;20051;-81
2022/12/05 02:42:23;;;;;;;15.25;5.80;;;4.90;99.90;;;;;;5057587;28;20079;-81
2022/12/05 02:45:11;;;;;;;10.10;5.25;;;5.60;99.90;;;;;;5074392;28;20036;-84
2022/12/05 02:47:49;;;;;;;9.13;4.95;;;5.00;99.90;;;;;;5057412;28;20041;-84
2022/12/05 02:50:19;;;;;;;12.25;4.68;;;5.80;99.90;;;;;;5048230;28;20036;-84
2022/12/05 02:52:48;;;;;;;9.40;4.68;;;6.20;99.90;;;;;;5070858;28;20037;-84
2022/12/05 02:55:15;;;;;;;8.82;4.55;;;5.00;99.90;;;;;;5089243;28;20033;-84
2022/12/05 02:57:45;;;;;;;10.95;5.15;;;5.10;99.90;;;;;;5040820;28;20048;-85
2022/12/05 03:00:12;;;;;;;8.48;3.88;;;5.00;99.90;;;;;;5055417;28;20101;-81
2022/12/05 03:02:39;;;;;;;10.48;4.60;;;5.10;99.90;;;;;;5054122;28;20500;-81
2022/12/05 03:05:31;;;;;;;11.05;4.78;;;5.10;99.90;;;;;;5021408;28;20107;-81
2022/12/05 03:08:02;;;;;;;9.88;4.63;;;5.10;99.90;;;;;;5037359;28;20072;-81
2022/12/05 03:10:30;;;;;;;8.25;4.60;;;5.20;99.90;;;;;;5037519;28;20425;-81
2022/12/05 03:13:03;;;;;;;8.75;4.10;;;5.10;99.90;;;;;;5070215;28;20357;-81
2022/12/05 03:15:39;;;;;;;7.63;4.05;;;6.30;99.90;;;;;;5057287;28;20037;-80
2022/12/05 03:18:11;;;;;;;9.02;4.03;;;5.10;99.90;;;;;;5073858;28;20108;-81
2022/12/05 03:20:46;;;;;;;8.15;3.95;;;7.40;99.90;;;;;;5058106;28;20048;-80
2022/12/05 03:23:22;;;;;;;9.88;4.38;;;5.20;99.90;;;;;;5065151;28;20127;-81
2022/12/05 03:25:54;;;;;;;7.70;3.92;;;5.10;99.90;;;;;;5040489;28;20040;-80
2022/12/05 03:28:32;;;;;;;8.73;4.57;;;5.10;99.90;;;;;;5056538;28;20525;-81
2022/12/05 03:31:07;;;;;;;8.48;3.83;;;5.10;99.90;;;;;;5056678;28;20048;-81
2022/12/05 03:33:41;;;;;;;8.30;3.45;;;6.20;99.90;;;;;;5040075;28;20445;-81
2022/12/05 03:36:26;;;;;;;7.10;3.13;;;5.20;99.90;;;;;;5039399;28;20048;-81
2022/12/05 03:39:17;;;;;;;7.35;4.18;;;5.10;99.90;;;;;;5039959;28;20044;-81
2022/12/05 03:42:01;;;;;;;9.20;4.47;;;5.10;99.90;;;;;;5056374;28;20052;-81
2022/12/05 03:45:04;;;;;;;6.85;3.45;;;5.10;99.90;;;;;;5056104;28;20086;-81
2022/12/05 03:47:43;;;;;;;7.03;3.17;;;5.10;99.90;;;;;;5056779;28;20072;-81
2022/12/05 03:50:26;;;;;;;6.75;3.22;;;4.70;99.90;;;;;;5040078;28;20036;-84
2022/12/05 03:53:00;;;;;;;10.80;3.53;;;5.10;99.90;;;;;;5061222;28;20471;-84
2022/12/05 03:55:38;;;;;;;7.65;3.72;;;5.10;99.90;;;;;;5056464;28;20384;-84
2022/12/05 03:58:13;;;;;;;10.75;4.18;;;4.90;99.90;;;;;;5040297;28;20048;-85
2022/12/05 04:00:44;;;;;;;8.95;3.95;;;5.60;99.90;;;;;;5056347;28;20055;-85
2022/12/05 04:03:40;;;;;;;9.05;3.78;;;6.70;99.90;;;;;;5039587;28;20460;-84
2022/12/05 04:06:20;;;;;;;7.35;3.40;;;5.00;99.90;;;;;;5055376;28;20052;-85
2022/12/05 04:08:57;;;;;;;6.53;3.47;;;5.00;99.90;;;;;;5072443;28;20442;-85
2022/12/05 04:11:26;;;;;;;8.52;3.42;;;5.00;99.90;;;;;;5055947;28;20040;-84
2022/12/05 04:13:58;;;;;;;5.05;3.15;;;4.80;99.90;;;;;;5057787;28;20040;-84
2022/12/05 04:22:33;;;;;;;8.70;3.25;;;4.90;99.90;;;;;;5048523;28;20048;-85
2022/12/05 04:27:51;;;;;;;8.48;3.50;;;5.40;99.90;;;;;;5036518;28;20053;-80
2022/12/05 04:30:34;;;;;;;8.80;3.38;;;5.00;99.90;;;;;;5035887;28;20063;-80
2022/12/05 04:33:16;;;;;;;9.05;4.10;;;5.80;99.90;;;;;;5068637;28;20107;-80
2022/12/05 04:36:01;;;;;;;8.00;3.90;;;2.60;99.90;;;;;;5094170;28;20513;-80
2022/12/05 04:38:34;;;;;;;5.28;2.90;;;6.50;99.90;;;;;;5109762;28;20051;-80
2022/12/05 04:41:02;;;;;;;7.05;3.55;;;5.00;99.90;;;;;;5092460;28;20043;-84
2022/12/05 04:43:33;;;;;;;6.45;3.60;;;6.00;99.90;;;;;;5029754;28;20370;-84
2022/12/05 04:46:03;;;;;;;8.15;3.72;;;5.00;99.90;;;;;;5036000;28;20040;-84
2022/12/05 04:48:30;;;;;;;7.20;3.92;;;6.60;99.90;;;;;;5035420;28;20037;-84
2022/12/05 04:50:57;;;;;;;8.57;3.60;;;6.30;99.90;;;;;;5052128;28;20166;-84
2022/12/05 04:53:28;;;;;;;6.38;3.45;;;5.40;99.90;;;;;;5035645;28;20040;-84
2022/12/05 04:55:57;;;;;;;6.97;3.45;;;6.00;99.90;;;;;;5025864;28;20068;-84
2022/12/05 04:58:26;;;;;;;8.90;3.75;;;5.00;99.90;;;;;;5069009;28;20040;-82
2022/12/05 05:01:09;;;;;;;6.65;3.78;;;5.00;99.90;;;;;;5019315;28;20087;-82
2022/12/05 05:03:43;;;;;;;6.63;3.65;;;3.10;99.90;;;;;;5090745;28;20502;-82
2022/12/05 05:06:11;;;;;;;10.85;3.95;;;5.70;99.90;;;;;;5071272;28;20072;-82
2022/12/05 05:08:52;;;;;;;9.70;3.90;;;7.00;99.90;;;;;;5022160;28;20049;-82
2022/12/05 05:11:25;;;;;;;8.25;3.70;;;5.20;99.90;;;;;;5052807;28;20037;-82
2022/12/05 05:13:52;;;;;;;7.28;3.60;;;5.00;99.90;;;;;;5035510;28;20045;-81
2022/12/05 05:16:24;;;;;;;8.93;3.83;;;4.90;99.90;;;;;;5052150;28;20041;-81
2022/12/05 05:18:51;;;;;;;6.57;3.42;;;5.00;99.90;;;;;;5051212;28;20058;-81
2022/12/05 05:21:19;;;;;;;8.73;4.18;;;5.00;99.90;;;;;;5019074;28;20049;-81
2022/12/05 05:23:45;;;;;;;8.77;4.72;;;5.00;99.90;;;;;;5069076;28;20041;-81
2022/12/05 05:26:11;;;;;;;8.90;4.45;;;6.70;99.90;;;;;;5051734;28;20052;-81
2022/12/05 05:28:37;;;;;;;6.57;3.50;;;5.00;99.90;;;;;;5018603;28;20374;-81
2022/12/05 05:31:04;;;;;;;10.73;4.38;;;5.70;99.90;;;;;;5062982;28;20045;-81
2022/12/05 05:33:31;;;;;;;10.07;4.35;;;5.10;99.90;;;;;;5088555;28;20032;-81
2022/12/05 05:36:00;;;;;;;11.98;4.13;;;4.40;99.90;;;;;;5039076;28;20075;-81
2022/12/05 05:38:26;;;;;;;9.52;3.85;;;6.40;99.90;;;;;;5051897;28;20076;-81
2022/12/05 05:40:52;;;;;;;9.95;3.92;;;5.10;99.90;;;;;;5035651;28;20080;-81
2022/12/05 05:43:17;;;;;;;9.02;4.47;;;6.50;99.90;;;;;;5051726;28;20374;-81
2022/12/05 05:45:43;;;;;;;7.75;3.95;;;7.00;99.90;;;;;;5035531;28;20481;-81
2022/12/05 05:48:09;;;;;;;6.97;4.25;;;5.50;99.90;;;;;;5035149;28;20037;-84
2022/12/05 05:50:36;;;;;;;6.47;3.47;;;5.00;99.90;;;;;;5051310;28;20094;-84
2022/12/05 05:53:01;;;;;;;6.72;3.85;;;5.80;99.90;;;;;;5051386;28;20048;-84
2022/12/05 05:55:27;;;;;;;8.43;3.75;;;7.00;99.90;;;;;;5035369;28;20037;-84
2022/12/05 05:57:53;;;;;;;7.22;3.53;;;6.70;99.90;;;;;;5051373;28;20036;-84
2022/12/05 06:00:19;;;;;;;7.90;4.20;;;6.10;99.90;;;;;;5053129;28;20060;-84
2022/12/05 06:02:45;;;;;;;7.47;3.85;;;5.10;99.90;;;;;;5057353;28;20127;-84
2022/12/05 06:05:10;;;;;;;8.23;3.38;;;7.10;99.90;;;;;;5078577;28;20384;-81
2022/12/05 06:07:36;;;;;;;8.00;4.00;;;5.00;99.90;;;;;;5059884;28;20083;-81
2022/12/05 06:10:02;;;;;;;8.25;4.13;;;5.20;99.90;;;;;;5025368;28;20366;-81
2022/12/05 06:12:28;;;;;;;9.68;3.58;;;5.20;99.90;;;;;;5058112;28;20480;-81
2022/12/05 06:14:54;;;;;;;7.88;3.90;;;5.20;99.90;;;;;;5025032;28;20075;-81
2022/12/05 06:17:20;;;;;;;7.07;3.45;;;5.00;99.90;;;;;;5058291;28;20066;-81
2022/12/05 06:19:46;;;;;;;6.07;3.50;;;5.20;99.90;;;;;;5074672;28;20415;-81
2022/12/05 06:22:11;;;;;;;12.57;4.50;;;4.50;99.90;;;;;;5091605;28;20053;-81
2022/12/05 06:24:37;;;;;;;7.70;3.47;;;5.20;99.90;;;;;;5093242;28;20043;-84
2022/12/05 06:27:03;;;;;;;8.95;3.83;;;6.90;99.90;;;;;;5060565;28;20059;-84
2022/12/05 06:29:29;;;;;;;7.07;3.65;;;5.20;99.90;;;;;;5061181;28;20491;-84
2022/12/05 06:31:55;;;;;;;6.53;3.10;;;5.20;99.90;;;;;;5061283;28;20114;-84
2022/12/05 06:34:21;;;;;;;8.73;3.42;;;5.20;99.90;;;;;;5061357;28;20539;-85
2022/12/05 06:36:47;;;;;;;9.00;3.40;;;6.70;99.90;;;;;;5061063;28;20521;-81
2022/12/05 06:39:12;;;;;;;7.93;3.17;;;6.50;99.90;;;;;;5061565;28;20036;-81
2022/12/05 06:41:38;;;;;;;8.82;4.05;;;5.20;99.90;;;;;;5070452;28;20036;-81
2022/12/05 06:44:04;;;;;;;6.90;3.00;;;5.20;99.90;;;;;;5057505;28;20043;-81
2022/12/05 06:46:30;;;;;;;7.93;2.85;;;5.20;99.90;;;;;;5047802;28;20031;-81
2022/12/05 06:48:57;;;;;;;6.43;3.55;;;5.60;99.90;;;;;;5043963;28;20417;-81
2022/12/05 06:51:23;;;;;;;9.40;3.55;;;6.60;99.90;;;;;;5057445;28;20036;-81
2022/12/05 06:53:49;;;;;;;9.77;4.05;;;5.50;99.90;;;;;;5040620;28;20047;-84
2022/12/05 06:56:18;;;;;;;9.20;3.70;;;5.20;99.90;;;;;;5064115;28;20032;-84
2022/12/05 06:58:51;;;;;;;7.10;3.55;;;5.70;99.90;;;;;;5060656;28;20127;-84
2022/12/05 07:01:38;;;;;;;7.70;3.47;;;4.80;99.90;;;;;;5061468;28;20051;-84
2022/12/05 07:04:04;;;;;;;;;;;5.40;99.90;;;;;;5060976;28;20036;-84
2022/12/05 07:06:34;;;;;;;6.90;3.67;;;5.20;99.90;;;;;;5076891;28;19922;-84
2022/12/05 07:09:03;;;;;;;7.68;3.67;;;5.30;99.90;;;;;;5045950;28;20040;-84
2022/12/05 07:11:29;;;;;;;7.38;4.10;;;5.40;99.90;;;;;;5056986;28;20041;-81
2022/12/05 07:13:55;;;;;;;8.27;4.20;;;5.10;99.90;;;;;;5044681;28;20041;-81
2022/12/05 07:16:21;;;;;;;9.77;4.18;;;5.20;99.90;;;;;;5043235;28;20119;-81
2022/12/05 07:18:47;;;;;;;8.77;3.85;;;5.80;99.90;;;;;;5020651;28;20044;-81
2022/12/05 07:21:15;;;;;;;7.43;3.72;;;5.20;99.90;;;;;;5037228;28;20106;-81
2022/12/05 07:23:42;;;;;;;11.50;3.45;;;4.50;99.90;;;;;;5037347;28;20049;-81
2022/12/05 07:26:13;;;;;;;9.65;3.95;;;6.60;99.90;;;;;;5021017;28;20036;-81
2022/12/05 07:28:39;;;;;;;8.40;3.65;;;5.30;99.90;;;;;;5072548;28;20091;-81
2022/12/05 07:31:11;;;;;;;8.50;3.65;;;5.70;99.90;;;;;;5057304;28;20045;-81
2022/12/05 07:33:37;;;;;;;12.73;4.45;;;5.20;99.90;;;;;;5072610;28;20387;-81
2022/12/05 07:36:12;;;;;;;6.60;3.65;;;5.20;99.90;;;;;;5075875;28;20055;-81
2022/12/05 07:38:38;;;;;;;8.50;4.07;;;5.20;99.90;;;;;;5040302;28;20388;-81
2022/12/05 07:41:07;;;;;;;10.43;4.28;;;6.60;99.90;;;;;;5077821;28;20036;-81
2022/12/05 07:43:32;;;;;;;7.72;4.72;;;5.30;99.90;;;;;;5050425;28;20051;-81
2022/12/05 07:46:06;;;;;;;9.10;4.30;;;6.10;99.90;;;;;;5040423;28;20033;-81
2022/12/05 07:48:32;;;;;;;10.05;4.18;;;5.20;99.90;;;;;;5039698;28;20068;-81
2022/12/05 07:51:00;;;;;;;8.88;3.60;;;5.70;99.90;;;;;;5039733;28;20125;-81
2022/12/05 07:53:26;;;;;;;8.23;3.42;;;5.80;99.90;;;;;;5056275;28;20090;-81
2022/12/05 07:55:52;;;;;;;10.63;4.15;;;6.60;99.90;;;;;;5056009;28;20116;-81
2022/12/05 07:58:18;;;;;;;13.15;4.35;;;5.30;99.90;;;;;;5039888;28;20508;-80
2022/12/05 08:00:43;;;;;;;10.23;4.07;;;5.30;99.90;;;;;;5039461;28;20051;-84
2022/12/05 08:03:09;;;;;;;12.77;4.05;;;5.40;99.90;;;;;;5023209;28;20036;-84
2022/12/05 08:05:36;;;;;;;12.20;4.10;;;5.40;99.90;;;;;;5041459;28;20122;-84
2022/12/05 08:08:02;;;;;;;9.80;4.32;;;5.40;99.90;;;;;;5071468;28;20515;-84
2022/12/05 08:10:27;;;;;;;11.10;4.20;;;6.50;99.90;;;;;;5055964;28;20036;-85
2022/12/05 08:12:53;;;;;;;17.73;3.90;;;5.50;99.90;;;;;;5055700;28;20032;-85
2022/12/05 08:15:19;;;;;;;13.88;4.40;;;6.70;99.90;;;;;;5092022;28;20060;-84
2022/12/05 08:17:45;;;;;;;10.52;3.70;;;5.40;99.90;;;;;;5050541;28;20040;-84
2022/12/05 08:20:11;;;;;;;11.20;3.92;;;5.40;99.90;;;;;;5075576;28;20067;-84
2022/12/05 08:22:37;;;;;;;14.35;4.53;;;5.40;99.90;;;;;;5053596;28;20048;-85
2022/12/05 08:25:02;;;;;;;8.15;3.95;;;6.00;99.90;;;;;;5042461;28;20039;-84
2022/12/05 08:27:28;;;;;;;10.05;3.42;;;5.40;99.90;;;;;;5042761;28;20135;-84
2022/12/05 08:29:54;;;;;;;9.13;3.72;;;5.50;99.90;;;;;;5070162;28;20111;-84
2022/12/05 08:32:20;;;;;;;8.38;3.83;;;5.50;99.90;;;;;;5064588;28;20036;-84
2022/12/05 08:34:46;;;;;;;8.13;2.80;;;5.50;99.90;;;;;;5107982;22;20056;-80
2022/12/05 08:37:11;;;;;;;8.25;3.75;;;5.40;99.90;;;;;;5092438;28;20131;-80
2022/12/05 08:39:37;;;;;;;12.40;3.80;;;5.50;99.90;;;;;;5092188;28;20453;-80
2022/12/05 08:42:03;;;;;;;9.55;3.60;;;5.20;99.90;;;;;;5071332;28;20098;-79
2022/12/05 08:44:29;;;;;;;9.00;3.20;;;5.50;99.90;;;;;;5080313;28;20050;-79
2022/12/05 08:46:55;;;;;;;10.05;3.60;;;5.50;99.90;;;;;;5074978;28;20131;-80
2022/12/05 08:49:20;;;;;;;7.78;3.33;;;5.10;99.90;;;;;;5091476;28;20119;-80
2022/12/05 08:51:46;;;;;;;8.68;3.22;;;5.60;99.90;;;;;;5065219;28;20036;-80
2022/12/05 08:54:12;;;;;;;9.93;3.95;;;6.10;99.90;;;;;;5085868;28;20135;-79
2022/12/05 08:56:38;;;;;;;8.82;3.78;;;5.50;99.90;;;;;;5075926;28;20063;-84
2022/12/05 08:59:05;;;;;;;8.95;3.63;;;5.50;99.90;;;;;;5073877;28;20491;-80
2022/12/05 09:01:32;;;;;;;8.73;3.70;;;5.50;99.90;;;;;;5091213;28;20040;-80
2022/12/05 09:04:03;;;;;;;9.23;4.43;;;6.40;99.90;;;;;;5118642;28;20047;-80
2022/12/05 09:06:30;;;;;;;10.07;4.07;;;5.50;99.90;;;;;;5055299;28;20041;-83
2022/12/05 09:09:03;;;;;;;11.73;4.25;;;5.50;99.90;;;;;;5073788;28;20515;-84
2022/12/05 09:11:32;;;;;;;9.73;3.97;;;5.60;99.90;;;;;;5092074;28;20098;-84
2022/12/05 09:13:59;;;;;;;9.35;3.47;;;5.80;99.90;;;;;;5092268;28;20413;-84
2022/12/05 09:16:28;;;;;;;10.32;3.75;;;5.60;99.90;;;;;;5092109;28;20043;-84
2022/12/05 09:18:55;;;;;;;7.57;3.72;;;5.60;99.90;;;;;;5092059;28;20043;-84
2022/12/05 09:21:23;;;;;;;11.25;3.58;;;5.60;99.90;;;;;;5075683;28;20559;-84
2022/12/05 09:23:50;;;;;;;7.85;3.45;;;5.60;99.90;;;;;;5091939;28;20026;-80
2022/12/05 09:26:18;;;;;;;9.93;3.60;;;5.70;99.90;;;;;;5091863;28;20577;-80
2022/12/05 09:28:44;;;;;;;12.98;3.80;;;5.70;99.90;;;;;;5091174;28;20040;-80
2022/12/05 09:31:13;;;;;;;5.78;3.42;;;5.70;99.90;;;;;;5091212;28;20051;-80
2022/12/05 09:33:39;;;;;;;14.00;4.05;;;6.10;99.90;;;;;;5090587;28;20532;-80
2022/12/05 09:36:11;;;;;;;8.93;3.97;;;6.00;99.90;;;;;;5077962;28;20162;-80
2022/12/05 09:38:37;;;;;;;7.40;4.03;;;5.80;99.90;;;;;;5069940;28;20115;-84
2022/12/05 09:44:47;;;;;;;8.43;4.35;;;5.80;99.90;;;;;;5095679;28;20039;-80
2022/12/05 09:47:41;;;;;;;7.13;3.67;;;5.80;99.90;;;;;;5077662;28;20040;-79
2022/12/05 09:50:21;;;;;;;9.68;3.35;;;5.80;99.90;;;;;;5060743;28;20464;-80
2022/12/05 09:52:53;;;;;;;9.00;3.72;;;5.90;99.90;;;;;;5061270;28;20036;-80
2022/12/05 09:55:20;;;;;;;9.05;4.30;;;5.90;99.90;;;;;;5072130;28;20506;-79
2022/12/05 09:58:17;;;;;;;10.27;4.15;;;5.80;99.90;;;;;;5041453;28;20044;-79
2022/12/05 10:00:43;;;;;;;8.00;3.67;;;5.90;99.90;;;;;;5073895;28;20048;-80
2022/12/05 10:03:27;;;;;;;11.90;3.97;;;6.40;99.90;;;;;;5091087;28;20044;-80
2022/12/05 10:06:10;;;;;;;8.35;3.85;;;5.90;99.90;;;;;;5095285;28;20127;-80
2022/12/05 10:09:13;;;;;;;9.90;4.03;;;5.90;99.90;;;;;;5075851;28;20048;-80
2022/12/05 10:11:46;;;;;;;7.85;3.30;;;5.90;99.90;;;;;;5067355;28;20041;-80
2022/12/05 10:14:18;;;;;;;10.40;3.50;;;5.90;99.90;;;;;;5077588;28;20043;-79
2022/12/05 10:16:57;;;;;;;9.68;4.10;;;6.50;99.90;;;;;;5071659;28;20028;-79
2022/12/05 10:19:33;;;;;;;12.85;3.88;;;5.80;99.90;;;;;;5077649;28;20047;-79
2022/12/05 10:22:08;;;;;;;8.05;3.88;;;6.00;99.90;;;;;;5076520;28;20480;-79
2022/12/05 10:24:44;;;;;;;9.60;3.85;;;5.80;99.90;;;;;;5044671;28;20044;-79
2022/12/05 10:27:19;;;;;;;10.45;3.97;;;5.80;99.90;;;;;;5077144;28;20483;-79
2022/12/05 10:30:05;;;;;;;8.75;3.53;;;5.80;99.90;;;;;;5070176;28;20433;-84
2022/12/05 10:32:56;;;;;;;9.88;4.38;;;5.80;99.90;;;;;;5051109;28;20046;-84
2022/12/05 10:35:23;;;;;;;9.50;3.20;;;5.80;99.90;;;;;;5091968;28;20042;-85
2022/12/05 10:38:03;;;;;;;8.73;4.22;;;5.70;99.90;;;;;;5094714;28;20054;-84
2022/12/05 10:40:44;;;;;;;12.30;3.78;;;5.80;99.90;;;;;;5093439;28;20040;-84
2022/12/05 10:43:15;;;;;;;11.40;4.28;;;6.00;99.90;;;;;;5070847;28;20031;-84
2022/12/05 10:45:46;;;;;;;7.97;4.00;;;5.80;99.90;;;;;;5068732;28;20050;-84
2022/12/05 10:48:14;;;;;;;7.82;3.67;;;5.80;99.90;;;;;;5085878;28;20097;-80
2022/12/05 10:50:42;;;;;;;8.40;3.28;;;5.70;99.90;;;;;;5084730;28;20043;-80
2022/12/05 10:53:14;;;;;;;11.32;4.15;;;5.40;99.90;;;;;;5081227;28;20059;-80
2022/12/05 10:55:46;;;;;;;8.38;3.60;;;5.70;99.90;;;;;;5073248;28;20425;-79
2022/12/05 10:58:23;;;;;;;11.60;4.30;;;5.70;99.90;;;;;;5069023;28;20044;-79
2022/12/05 11:00:51;;;;;;;10.10;3.83;;;5.70;99.90;;;;;;5084407;28;20064;-80
2022/12/05 11:03:31;;;;;;;8.13;4.55;;;5.70;99.90;;;;;;5083877;28;20036;-80
2022/12/05 11:06:00;;;;;;;10.65;3.63;;;5.70;99.90;;;;;;5066615;28;20046;-80
2022/12/05 11:08:31;;;;;;;9.88;3.65;;;5.70;99.90;;;;;;5066010;28;20044;-79
2022/12/05 11:11:05;;;;;;;12.85;4.00;;;5.70;99.90;;;;;;5113155;27;20040;-80
2022/12/05 11:13:32;;;;;;;6.82;3.50;;;6.80;99.90;;;;;;5086391;28;20464;-80
2022/12/05 11:15:57;;;;;;;7.70;3.22;;;5.30;99.90;;;;;;5088336;28;20451;-80
2022/12/05 11:18:28;;;;;;;10.45;3.55;;;5.40;99.90;;;;;;5054391;28;20076;-80
2022/12/05 11:20:55;;;;;;;9.45;4.22;;;6.30;99.90;;;;;;5091135;28;20055;-84
2022/12/05 11:23:27;;;;;;;9.45;3.25;;;5.60;99.90;;;;;;5090570;28;20801;-84
2022/12/05 11:25:54;;;;;;;10.75;3.85;;;5.80;99.90;;;;;;5089864;28;20075;-84
2022/12/05 11:28:19;;;;;;;10.90;4.40;;;5.70;99.90;;;;;;5087932;28;20040;-81
2022/12/05 11:31:19;;;;;;;7.90;3.75;;;5.70;99.90;;;;;;5090995;28;20125;-81
2022/12/05 11:34:02;;;;;;;8.85;3.53;;;5.70;99.90;;;;;;5074657;28;20036;-81
2022/12/05 11:36:56;;;;;;;12.57;4.68;;;5.70;99.90;;;;;;5092000;28;20052;-80
2022/12/05 11:39:24;;;;;;;7.18;3.25;;;5.60;99.90;;;;;;5072331;28;20115;-80
2022/12/05 11:41:58;;;;;;;7.47;3.50;;;5.50;99.90;;;;;;5091588;28;20090;-80
2022/12/05 11:44:30;;;;;;;8.10;3.45;;;5.60;99.90;;;;;;5090066;28;20038;-80
2022/12/05 11:47:20;;;;;;;9.18;3.42;;;5.60;99.90;;;;;;5088627;28;20127;-80
2022/12/05 11:50:03;;;;;;;6.38;3.47;;;5.60;99.90;;;;;;5088643;28;20044;-80
2022/12/05 11:52:47;;;;;;;6.78;3.03;;;5.60;99.90;;;;;;5087576;28;20454;-80
2022/12/05 11:55:20;;;;;;;6.22;3.05;;;5.70;99.90;;;;;;5075358;28;20043;-84
2022/12/05 11:57:55;;;;;;;6.10;3.10;;;5.60;99.90;;;;;;5074050;28;20055;-85
2022/12/05 12:00:42;;;;;;;6.75;2.88;;;5.50;99.90;;;;;;5099734;28;20105;-84
2022/12/05 12:03:18;;;;;;;8.73;3.85;;;5.50;99.90;;;;;;5090421;28;20047;-85
2022/12/05 12:05:44;;;;;;;;;;;5.60;99.90;;;;;;5073402;28;20083;-84
2022/12/05 12:08:25;;;;;;;10.70;3.53;;;5.50;99.90;;;;;;5090602;28;19986;-84
2022/12/05 12:11:06;;;;;;;6.70;2.75;;;5.40;99.90;;;;;;5089591;28;20067;-81
2022/12/05 12:13:49;;;;;;;11.30;3.53;;;5.50;99.90;;;;;;5102892;28;20040;-80
2022/12/05 12:16:33;;;;;;;7.82;2.75;;;5.50;99.90;;;;;;5072448;28;20040;-81
2022/12/05 12:19:33;;;;;;;9.20;3.58;;;5.50;99.90;;;;;;5068442;28;20115;-81
2022/12/05 12:22:43;;;;;;;6.90;2.38;;;5.50;99.90;;;;;;5053780;28;20046;-81
2022/12/05 12:25:24;;;;;;;5.50;2.67;;;5.60;99.90;;;;;;5052040;28;20388;-81
2022/12/05 12:28:08;;;;;;;7.88;2.92;;;5.60;99.90;;;;;;5080577;28;20563;-81
2022/12/05 12:31:11;;;;;;;9.80;3.20;;;5.60;99.90;;;;;;5082255;28;20078;-80
2022/12/05 12:34:11;;;;;;;7.63;3.00;;;5.60;99.90;;;;;;5067812;28;20079;-81
2022/12/05 12:36:45;;;;;;;4.75;2.88;;;5.70;99.90;;;;;;5056038;28;20047;-81
2022/12/05 12:39:59;;;;;;;6.63;2.65;;;5.70;99.90;;;;;;5073898;28;20044;-81
2022/12/05 12:42:50;;;;;;;5.85;2.40;;;5.70;99.90;;;;;;5074570;28;20047;-81
2022/12/05 12:45:15;;;;;;;6.88;2.97;;;5.70;99.90;;;;;;5069269;28;20051;-81
2022/12/05 12:48:14;;;;;;;7.88;2.53;;;5.80;99.90;;;;;;5073102;28;20040;-81
2022/12/05 12:50:43;;;;;;;5.53;1.98;;;5.60;99.90;;;;;;5050733;28;20421;-80
2022/12/05 12:53:24;;;;;;;3.47;1.80;;;6.10;99.90;;;;;;5063861;28;20049;-80
2022/12/05 12:56:15;;;;;;;3.75;2.00;;;5.70;99.90;;;;;;5069128;28;20036;-80
2022/12/05 12:59:04;;;;;;;5.60;1.55;;;5.60;99.90;;;;;;5058024;28;20032;-80
2022/12/05 13:01:41;;;;;;;3.03;1.52;;;5.60;99.90;;;;;;5068972;28;20060;-80
2022/12/05 13:04:43;;;;;;;3.10;1.58;;;5.60;99.90;;;;;;5058054;28;20070;-80
2022/12/05 13:07:34;;;;;;;2.80;1.60;;;5.60;99.90;;;;;;5070993;28;20048;-80
2022/12/05 13:10:11;;;;;;;5.53;1.50;;;5.60;99.90;;;;;;5057855;28;20028;-80
2022/12/05 13:12:38;;;;;;;2.90;1.50;;;5.60;99.90;;;;;;5073932;28;20044;-80
2022/12/05 13:15:14;;;;;;;2.40;1.60;;;5.60;99.90;;;;;;5065377;28;20463;-80
2022/12/05 13:17:44;;;;;;;4.43;1.88;;;5.50;99.90;;;;;;5074353;28;20051;-85
2022/12/05 13:20:33;;;;;;;2.78;1.50;;;6.00;99.90;;;;;;5052567;28;20170;-85
2022/12/05 13:23:00;;;;;;;2.88;1.50;;;5.50;99.90;;;;;;5072105;28;20562;-85
2022/12/05 13:25:33;;;;;;;2.10;1.38;;;5.70;99.90;;;;;;5087914;28;20109;-85
2022/12/05 13:28:02;;;;;;;1.70;1.02;;;5.50;99.90;;;;;;5061816;28;20040;-85
2022/12/05 13:30:29;;;;;;;3.53;1.60;;;6.20;99.90;;;;;;5078728;28;20032;-85
2022/12/05 13:33:03;;;;;;;5.45;2.45;;;5.50;99.90;;;;;;5078654;28;20216;-80